createdAt,value
2023-11-30T00:00:48.691Z,99771.13
2023-11-30T00:05:50.184Z,99759.16
2023-11-30T00:10:51.639Z,99756.72
2023-11-30T00:15:53.031Z,99752.78
2023-11-30T00:20:54.500Z,99755.88
2023-11-30T00:25:56.055Z,99747.41
2023-11-30T00:30:57.874Z,99738.06
2023-11-30T00:35:59.267Z,99724.81
2023-11-30T00:41:00.796Z,99704.53
2023-11-30T00:46:09.384Z,99718.75
2023-11-30T00:51:12.482Z,99723.31
2023-11-30T00:56:14.491Z,99715.31
2023-11-30T01:01:15.960Z,99731.03
2023-11-30T01:06:17.380Z,99742.16
2023-11-30T01:11:18.931Z,99734.63
2023-11-30T01:16:20.420Z,99723.31
2023-11-30T01:21:21.923Z,99728.25
2023-11-30T01:26:23.706Z,99717.44
2023-11-30T01:31:25.116Z,99707.63
2023-11-30T01:36:26.611Z,99706.47
2023-11-30T01:41:28.026Z,99701.88
2023-11-30T01:46:31.364Z,99696.00
2023-11-30T01:51:33.487Z,99687.81
2023-11-30T01:56:38.447Z,99686.19
2023-11-30T02:01:41.320Z,99675.38
2023-11-30T02:06:46.786Z,99668.84
2023-11-30T02:11:48.229Z,99672.59
2023-11-30T02:16:49.669Z,99678.97
2023-11-30T02:21:52.313Z,99658.03
2023-11-30T02:26:53.834Z,99649.53
2023-11-30T02:31:55.225Z,99654.59
2023-11-30T02:36:56.761Z,99632.50
2023-11-30T02:41:58.188Z,99660.66
2023-11-30T02:46:59.579Z,99656.38
2023-11-30T02:52:01.050Z,99641.03
2023-11-30T02:57:02.472Z,99636.94
2023-11-30T03:02:04.556Z,99640.50
2023-11-30T03:07:06.079Z,99630.34
2023-11-30T03:12:08.185Z,99640.19
2023-11-30T03:17:09.677Z,99645.22
2023-11-30T03:22:11.297Z,99624.31
2023-11-30T03:27:12.792Z,99611.72
2023-11-30T03:32:14.339Z,99614.81
2023-11-30T03:37:15.851Z,99601.34
2023-11-30T03:42:17.307Z,99608.41
2023-11-30T03:47:18.823Z,99621.00
2023-11-30T03:52:20.273Z,99620.50
2023-11-30T03:57:21.775Z,99622.41
2023-11-30T04:02:23.272Z,99628.19
2023-11-30T04:07:24.702Z,99629.16
2023-11-30T04:12:26.193Z,99634.56
2023-11-30T04:17:27.628Z,99633.09
2023-11-30T04:22:29.134Z,99621.31
2023-11-30T04:27:30.648Z,99617.19
2023-11-30T04:32:32.194Z,99613.94
2023-11-30T04:37:33.557Z,99612.75
2023-11-30T04:42:35.086Z,99606.72
2023-11-30T04:47:36.540Z,99601.28
2023-11-30T04:52:38.029Z,99587.91
2023-11-30T04:57:39.434Z,99596.41
2023-11-30T05:02:50.803Z,99596.38
2023-11-30T05:07:52.797Z,99592.13
2023-11-30T05:12:54.300Z,99597.72
2023-11-30T05:17:55.781Z,99593.09
2023-11-30T05:22:57.240Z,99594.75
2023-11-30T05:27:59.643Z,99591.41
2023-11-30T05:33:01.227Z,99598.16
2023-11-30T05:38:03.105Z,99604.47
2023-11-30T05:43:04.893Z,99591.03
2023-11-30T05:48:06.749Z,99584.53
2023-11-30T05:53:08.230Z,99579.28
2023-11-30T05:58:09.604Z,99575.81
2023-11-30T06:03:11.231Z,99573.75
2023-11-30T06:08:12.692Z,99577.81
2023-11-30T06:13:14.216Z,99586.53
2023-11-30T06:18:15.866Z,99597.47
2023-11-30T06:23:17.574Z,99593.28
2023-11-30T06:28:19.393Z,99590.00
2023-11-30T06:33:21.122Z,99588.22
2023-11-30T06:38:22.529Z,99589.56
2023-11-30T06:43:24.047Z,99581.53
2023-11-30T06:48:25.663Z,99581.03
2023-11-30T06:53:27.314Z,99588.06
2023-11-30T06:58:28.902Z,99574.97
2023-11-30T07:03:31.160Z,99585.13
2023-11-30T07:08:32.904Z,99589.75
2023-11-30T07:13:34.514Z,99580.56
2023-11-30T07:18:36.204Z,99574.72
2023-11-30T07:23:38.130Z,99573.03
2023-11-30T07:28:40.070Z,99561.47
2023-11-30T07:33:41.707Z,99569.09
2023-11-30T07:38:43.371Z,99559.44
2023-11-30T07:43:45.093Z,99571.44
2023-11-30T07:48:50.572Z,99570.84
2023-11-30T07:53:52.599Z,99566.44
2023-11-30T07:58:54.235Z,99566.22
2023-11-30T08:03:56.112Z,99562.88
2023-11-30T08:08:57.769Z,99565.03
2023-11-30T08:13:59.357Z,99565.78
2023-11-30T08:19:01.130Z,99563.28
2023-11-30T08:24:06.077Z,99570.50
2023-11-30T08:29:07.718Z,99568.88
2023-11-30T08:34:10.168Z,99572.53
2023-11-30T08:39:11.797Z,99575.34
2023-11-30T08:44:13.443Z,99574.84
2023-11-30T08:49:15.392Z,99573.84
2023-11-30T08:54:17.065Z,99574.13
2023-11-30T08:59:19.356Z,99562.88
2023-11-30T09:04:24.067Z,99558.72
2023-11-30T09:09:25.533Z,99549.31
2023-11-30T09:14:27.047Z,99555.56
2023-11-30T09:19:28.596Z,99552.84
2023-11-30T09:24:33.105Z,99567.41
2023-11-30T09:29:36.659Z,99561.25
2023-11-30T09:34:38.194Z,99557.63
2023-11-30T09:39:39.837Z,99555.28
2023-11-30T09:44:41.284Z,99549.13
2023-11-30T09:49:43.092Z,99545.16
2023-11-30T09:54:44.543Z,99551.44
2023-11-30T09:59:45.980Z,99564.22
2023-11-30T10:04:47.379Z,99559.22
2023-11-30T10:09:49.140Z,99556.56
2023-11-30T10:14:59.978Z,99546.03
2023-11-30T10:20:01.446Z,99538.19
2023-11-30T10:25:02.922Z,99546.22
2023-11-30T10:30:05.216Z,99552.13
2023-11-30T10:35:16.870Z,99550.88
2023-11-30T10:40:19.210Z,99548.09
2023-11-30T10:45:21.579Z,99539.63
2023-11-30T10:50:23.466Z,99550.31
2023-11-30T10:55:50.098Z,99541.59
2023-11-30T11:00:58.154Z,99534.28
2023-11-30T11:06:04.013Z,99537.97
2023-11-30T11:11:11.278Z,99534.06
2023-11-30T11:16:12.864Z,99535.13
2023-11-30T11:21:25.719Z,99541.41
2023-11-30T11:26:27.307Z,99534.69
2023-11-30T11:31:28.875Z,99550.34
2023-11-30T11:36:30.473Z,99540.34
2023-11-30T11:41:32.664Z,99539.34
2023-11-30T11:46:34.912Z,99531.22
2023-11-30T11:51:46.519Z,99529.03
2023-11-30T11:56:52.646Z,99530.41
2023-11-30T12:01:55.417Z,99525.75
2023-11-30T12:06:57.989Z,99531.63
2023-11-30T12:11:59.509Z,99521.41
2023-11-30T12:17:04.296Z,99511.72
2023-11-30T12:22:05.846Z,99505.38
2023-11-30T12:27:07.430Z,99509.06
2023-11-30T12:32:08.871Z,99505.22
2023-11-30T12:37:13.223Z,99501.16
2023-11-30T12:42:14.730Z,99496.72
2023-11-30T12:47:16.420Z,99499.97
2023-11-30T12:52:17.796Z,99504.63
2023-11-30T12:57:20.232Z,99498.75
2023-11-30T13:02:21.697Z,99497.16
2023-11-30T13:07:23.493Z,99499.38
2023-11-30T13:12:25.080Z,99492.69
2023-11-30T13:17:26.599Z,99504.84
2023-11-30T13:22:28.122Z,99494.28
2023-11-30T13:27:29.586Z,99492.44
2023-11-30T13:32:34.539Z,99496.72
2023-11-30T13:37:44.609Z,99494.09
2023-11-30T13:42:46.380Z,99496.72
2023-11-30T13:47:47.836Z,99492.22
2023-11-30T13:52:49.446Z,99497.28
2023-11-30T13:57:51.174Z,99494.19
2023-11-30T14:02:52.633Z,99494.38
2023-11-30T14:07:55.178Z,99496.94
2023-11-30T14:12:56.644Z,99499.16
2023-11-30T14:17:58.128Z,99492.25
2023-11-30T14:22:59.644Z,99490.41
2023-11-30T14:28:05.294Z,99504.13
2023-11-30T14:33:14.152Z,99505.34
2023-11-30T14:38:15.783Z,99510.59
2023-11-30T14:43:17.217Z,99510.09
2023-11-30T14:48:18.748Z,99512.06
2023-11-30T14:53:20.660Z,99520.91
2023-11-30T14:58:22.069Z,99520.19
2023-11-30T15:03:23.510Z,99519.13
2023-11-30T15:08:25.106Z,99528.88
2023-11-30T15:13:26.530Z,99521.50
2023-11-30T15:18:28.031Z,99526.81
2023-11-30T15:23:29.454Z,99526.13
2023-11-30T15:28:30.871Z,99537.00
2023-11-30T15:33:32.863Z,99533.22
2023-11-30T15:38:34.406Z,99537.97
2023-11-30T15:43:36.429Z,99530.53
2023-11-30T15:48:38.005Z,99538.72
2023-11-30T15:53:39.586Z,99541.78
2023-11-30T15:58:41.084Z,99533.25
2023-11-30T16:03:42.839Z,99543.19
2023-11-30T16:08:44.351Z,99544.25
2023-11-30T16:13:46.321Z,99546.69
2023-11-30T16:18:47.759Z,99547.97
2023-11-30T16:23:49.705Z,99553.59
2023-11-30T16:28:51.259Z,99562.56
2023-11-30T16:33:52.817Z,99569.94
2023-11-30T16:38:54.336Z,99563.88
2023-11-30T16:43:55.756Z,99561.63
2023-11-30T16:48:58.838Z,99572.38
2023-11-30T16:54:00.447Z,99561.41
2023-11-30T16:59:02.022Z,99566.56
2023-11-30T17:04:06.757Z,99570.16
2023-11-30T17:09:08.376Z,99574.94
2023-11-30T17:14:09.819Z,99576.91
2023-11-30T17:19:11.311Z,99579.53
2023-11-30T17:24:12.878Z,99568.22
2023-11-30T17:29:14.342Z,99573.88
2023-11-30T17:34:15.937Z,99576.22
2023-11-30T17:39:17.949Z,99566.75
2023-11-30T17:44:19.784Z,99569.28
2023-11-30T17:49:21.155Z,99573.91
2023-11-30T17:54:22.647Z,99579.81
2023-11-30T17:59:24.471Z,99587.53
2023-11-30T18:04:25.893Z,99570.53
2023-11-30T18:09:28.043Z,99583.81
2023-11-30T18:14:29.740Z,99583.34
2023-11-30T18:19:32.245Z,99586.00
2023-11-30T18:24:33.687Z,99588.94
2023-11-30T18:29:35.213Z,99587.16
2023-11-30T18:34:36.691Z,99591.03
2023-11-30T18:39:38.160Z,99593.09
2023-11-30T18:44:39.632Z,99603.09
2023-11-30T18:49:41.929Z,99590.72
2023-11-30T18:54:43.960Z,99602.50
2023-11-30T18:59:45.406Z,99607.06
2023-11-30T19:04:46.838Z,99606.44
2023-11-30T19:09:48.234Z,99607.75
2023-11-30T19:14:49.644Z,99614.28
2023-11-30T19:19:51.133Z,99619.22
2023-11-30T19:24:52.576Z,99620.19
2023-11-30T19:29:54.024Z,99640.19
2023-11-30T19:34:55.462Z,99644.31
2023-11-30T19:39:58.266Z,99646.28
2023-11-30T19:45:00.433Z,99643.84
2023-11-30T19:50:02.256Z,99644.69
2023-11-30T19:55:04.722Z,99643.25
2023-11-30T20:00:06.773Z,99642.13
2023-11-30T20:05:08.405Z,99652.28
2023-11-30T20:10:10.076Z,99644.59
2023-11-30T20:15:11.911Z,99649.19
2023-11-30T20:20:13.572Z,99650.00
2023-11-30T20:25:15.007Z,99648.78
2023-11-30T20:30:16.551Z,99662.88
2023-11-30T20:35:18.005Z,99662.06
2023-11-30T20:40:20.199Z,99658.19
2023-11-30T20:45:21.716Z,99662.63
2023-11-30T20:50:23.659Z,99662.94
2023-11-30T20:55:25.177Z,99664.28
2023-11-30T21:00:26.686Z,99668.50
2023-11-30T21:05:28.643Z,99670.28
2023-11-30T21:10:30.136Z,99667.69
2023-11-30T21:15:31.601Z,99674.41
2023-11-30T21:20:33.213Z,99672.44
2023-11-30T21:25:34.648Z,99681.22
2023-11-30T21:30:36.164Z,99677.97
2023-11-30T21:35:37.742Z,99666.00
2023-11-30T21:40:39.127Z,99683.06
2023-11-30T21:45:40.711Z,99683.06
2023-11-30T21:50:42.702Z,99688.44
2023-11-30T21:55:44.188Z,99683.84
2023-11-30T22:00:45.808Z,99681.06
2023-11-30T22:05:47.378Z,99692.88
2023-11-30T22:10:49.028Z,99688.94
2023-11-30T22:15:57.211Z,99683.69
2023-11-30T22:21:05.429Z,99685.84
2023-11-30T22:26:07.028Z,99690.09
2023-11-30T22:31:08.663Z,99692.88
2023-11-30T22:36:10.648Z,99697.13
2023-11-30T22:41:12.129Z,99698.63
2023-11-30T22:46:17.642Z,99701.59
2023-11-30T22:51:19.423Z,99701.56
2023-11-30T22:56:23.487Z,99711.72
2023-11-30T23:01:25.705Z,99715.81
2023-11-30T23:06:27.271Z,99715.47
2023-11-30T23:11:28.761Z,99717.59
2023-11-30T23:16:30.269Z,99724.81
2023-11-30T23:21:31.782Z,99723.81
2023-11-30T23:26:33.731Z,99739.66
2023-11-30T23:31:35.266Z,99750.00
2023-11-30T23:36:36.800Z,99752.94
2023-11-30T23:41:38.827Z,99765.03
2023-11-30T23:46:40.320Z,99773.84
2023-11-30T23:51:42.201Z,99767.63
2023-11-30T23:56:43.673Z,99764.69
